EZY347L LIMC-LIRN
Flight info
| Callsign | EZY347L |
|---|---|
| Flight time | 1h 3m |
| Altitude | 39000 |
| Route | ROBAS6Q ROBAS DCT EKDIR DCT EVULI DCT ERIKA ERIKA1A |
| Aircraft | A20N/M-SDE2E3FGHIRWXY/LB1 |
Departure
| Time | 2026-05-05 17:09 |
|---|---|
| Airport | Milan Malpensa International Airport (LIMC) |
Arrival
| Time | 2026-05-05 18:13 |
|---|---|
| Airport | Naples International Airport (LIRN) |
| Time | Latitude | Longitude | Altitude | Speed | Heading |
|---|---|---|---|---|---|
| 2026-05-05 16:52 | 45.64653 | 8.72493 | 755 ft | 0 kts | 258° |
| 2026-05-05 16:58 | 45.64654 | 8.72497 | 755 ft | 3 kts | 258° |
| 2026-05-05 16:58 | 45.64660 | 8.72533 | 751 ft | 4 kts | 252° |
| 2026-05-05 16:58 | 45.64670 | 8.72568 | 754 ft | 4 kts | 234° |
| 2026-05-05 16:58 | 45.64687 | 8.72589 | 751 ft | 4 kts | 178° |
| 2026-05-05 16:59 | 45.64692 | 8.72589 | 751 ft | 1 kts | 169° |
| 2026-05-05 17:03 | 45.64649 | 8.72605 | 754 ft | 16 kts | 163° |
| 2026-05-05 17:03 | 45.64537 | 8.72642 | 752 ft | 17 kts | 170° |
| 2026-05-05 17:03 | 45.64466 | 8.72563 | 751 ft | 17 kts | 258° |
| 2026-05-05 17:04 | 45.64423 | 8.72431 | 755 ft | 10 kts | 197° |
| 2026-05-05 17:04 | 45.64347 | 8.72445 | 751 ft | 16 kts | 169° |
| 2026-05-05 17:04 | 45.64217 | 8.72482 | 755 ft | 21 kts | 169° |
| 2026-05-05 17:04 | 45.64065 | 8.72527 | 751 ft | 23 kts | 162° |
| 2026-05-05 17:05 | 45.63907 | 8.72578 | 755 ft | 24 kts | 169° |
| 2026-05-05 17:05 | 45.63737 | 8.72625 | 754 ft | 26 kts | 169° |
| 2026-05-05 17:05 | 45.63552 | 8.72676 | 752 ft | 28 kts | 169° |
| 2026-05-05 17:05 | 45.63355 | 8.72730 | 754 ft | 30 kts | 169° |
| 2026-05-05 17:06 | 45.63145 | 8.72787 | 756 ft | 32 kts | 169° |
| 2026-05-05 17:06 | 45.62924 | 8.72848 | 754 ft | 33 kts | 168° |
| 2026-05-05 17:06 | 45.62692 | 8.72912 | 752 ft | 35 kts | 169° |
| 2026-05-05 17:06 | 45.62449 | 8.72979 | 754 ft | 37 kts | 169° |
| 2026-05-05 17:07 | 45.62188 | 8.73051 | 751 ft | 39 kts | 169° |
| 2026-05-05 17:07 | 45.61921 | 8.73124 | 755 ft | 40 kts | 169° |
| 2026-05-05 17:07 | 45.61727 | 8.73233 | 753 ft | 24 kts | 124° |
| 2026-05-05 17:07 | 45.61637 | 8.73425 | 753 ft | 13 kts | 124° |
| 2026-05-05 17:08 | 45.61632 | 8.73436 | 752 ft | 1 kts | 124° |
| 2026-05-05 17:08 | 45.61591 | 8.73541 | 753 ft | 19 kts | 108° |
| 2026-05-05 17:08 | 45.61625 | 8.73720 | 748 ft | 17 kts | 21° |
| 2026-05-05 17:08 | 45.61834 | 8.73678 | 746 ft | 66 kts | 349° |
| 2026-05-05 17:09 | 45.62581 | 8.73470 | 750 ft | 150 kts | 349° |
| 2026-05-05 17:09 | 45.63712 | 8.73155 | 1237 ft | 174 kts | 350° |
| 2026-05-05 17:09 | 45.64984 | 8.72968 | 2012 ft | 196 kts | 1° |
| 2026-05-05 17:09 | 45.66318 | 8.73646 | 2890 ft | 226 kts | 40° |
| 2026-05-05 17:10 | 45.67472 | 8.75389 | 3732 ft | 254 kts | 50° |
| 2026-05-05 17:10 | 45.68643 | 8.77362 | 4998 ft | 264 kts | 51° |
| 2026-05-05 17:10 | 45.69853 | 8.79394 | 6371 ft | 271 kts | 50° |
| 2026-05-05 17:10 | 45.71145 | 8.81418 | 7649 ft | 279 kts | 49° |
| 2026-05-05 17:11 | 45.72369 | 8.83628 | 8875 ft | 287 kts | 57° |
| 2026-05-05 17:11 | 45.73312 | 8.86152 | 10066 ft | 295 kts | 70° |
| 2026-05-05 17:11 | 45.73822 | 8.89091 | 10816 ft | 318 kts | 86° |
| 2026-05-05 17:11 | 45.73606 | 8.92334 | 11522 ft | 337 kts | 109° |
| 2026-05-05 17:12 | 45.72538 | 8.95332 | 12564 ft | 341 kts | 131° |
| 2026-05-05 17:12 | 45.70791 | 8.97646 | 13749 ft | 343 kts | 148° |
| 2026-05-05 17:12 | 45.68780 | 8.99465 | 14835 ft | 345 kts | 155° |
| 2026-05-05 17:12 | 45.66663 | 9.01112 | 15991 ft | 349 kts | 155° |
| 2026-05-05 17:13 | 45.64623 | 9.03038 | 17115 ft | 357 kts | 147° |
| 2026-05-05 17:13 | 45.62707 | 9.05373 | 18151 ft | 365 kts | 143° |
| 2026-05-05 17:13 | 45.60859 | 9.07921 | 18694 ft | 371 kts | 140° |
| 2026-05-05 17:13 | 45.59069 | 9.10611 | 19004 ft | 377 kts | 138° |
| 2026-05-05 17:14 | 45.57291 | 9.13418 | 19726 ft | 384 kts | 137° |
| 2026-05-05 17:14 | 45.55510 | 9.16278 | 20700 ft | 387 kts | 137° |
| 2026-05-05 17:14 | 45.53734 | 9.19128 | 21619 ft | 392 kts | 137° |
| 2026-05-05 17:14 | 45.51901 | 9.22051 | 22510 ft | 397 kts | 138° |
| 2026-05-05 17:15 | 45.50039 | 9.24993 | 23364 ft | 402 kts | 138° |
| 2026-05-05 17:15 | 45.48147 | 9.27965 | 24072 ft | 407 kts | 139° |
| 2026-05-05 17:15 | 45.46224 | 9.30973 | 24743 ft | 412 kts | 139° |
| 2026-05-05 17:15 | 45.44286 | 9.33996 | 25400 ft | 416 kts | 139° |
| 2026-05-05 17:16 | 45.42313 | 9.37067 | 25989 ft | 422 kts | 139° |
| 2026-05-05 17:16 | 45.40319 | 9.40168 | 26697 ft | 426 kts | 139° |
| 2026-05-05 17:16 | 45.38304 | 9.43299 | 27296 ft | 430 kts | 139° |
| 2026-05-05 17:16 | 45.36269 | 9.46460 | 27876 ft | 435 kts | 139° |
| 2026-05-05 17:17 | 45.34217 | 9.49643 | 28462 ft | 439 kts | 140° |
| 2026-05-05 17:17 | 45.32139 | 9.52863 | 29038 ft | 443 kts | 140° |
| 2026-05-05 17:17 | 45.30074 | 9.56060 | 29568 ft | 447 kts | 140° |
| 2026-05-05 17:17 | 45.27961 | 9.59327 | 30088 ft | 451 kts | 140° |
| 2026-05-05 17:18 | 45.25825 | 9.62626 | 30536 ft | 454 kts | 140° |
| 2026-05-05 17:18 | 45.23687 | 9.65928 | 31128 ft | 453 kts | 140° |
| 2026-05-05 17:18 | 45.21557 | 9.69217 | 31674 ft | 453 kts | 140° |
| 2026-05-05 17:18 | 45.19318 | 9.72325 | 32213 ft | 446 kts | 147° |
| 2026-05-05 17:19 | 45.16902 | 9.75046 | 32795 ft | 442 kts | 150° |
| 2026-05-05 17:19 | 45.14443 | 9.77658 | 33344 ft | 441 kts | 153° |
| 2026-05-05 17:19 | 45.11958 | 9.80209 | 33864 ft | 440 kts | 154° |
| 2026-05-05 17:19 | 45.09499 | 9.82688 | 34369 ft | 439 kts | 154° |
| 2026-05-05 17:20 | 45.07012 | 9.85181 | 34867 ft | 437 kts | 153° |
| 2026-05-05 17:20 | 45.04530 | 9.87667 | 35352 ft | 436 kts | 153° |
| 2026-05-05 17:20 | 45.02059 | 9.90144 | 35823 ft | 435 kts | 153° |
| 2026-05-05 17:20 | 44.99589 | 9.92624 | 36240 ft | 435 kts | 152° |
| 2026-05-05 17:21 | 44.97123 | 9.95103 | 36685 ft | 435 kts | 152° |
| 2026-05-05 17:21 | 44.94659 | 9.97578 | 37086 ft | 435 kts | 152° |
| 2026-05-05 17:21 | 44.92186 | 10.00061 | 37388 ft | 437 kts | 151° |
| 2026-05-05 17:22 | 44.87232 | 10.05033 | 38264 ft | 436 kts | 150° |
| 2026-05-05 17:22 | 44.84762 | 10.07510 | 38690 ft | 435 kts | 150° |
| 2026-05-05 17:22 | 44.82296 | 10.09978 | 38922 ft | 436 kts | 150° |
| 2026-05-05 17:23 | 44.77354 | 10.14916 | 38969 ft | 435 kts | 150° |
| 2026-05-05 17:23 | 44.72418 | 10.19837 | 38955 ft | 435 kts | 150° |
| 2026-05-05 17:24 | 44.67493 | 10.24733 | 38978 ft | 438 kts | 150° |
| 2026-05-05 17:24 | 44.62507 | 10.29682 | 38984 ft | 439 kts | 150° |
| 2026-05-05 17:25 | 44.57514 | 10.34629 | 39025 ft | 439 kts | 150° |
| 2026-05-05 17:25 | 44.52518 | 10.39568 | 39032 ft | 439 kts | 150° |
| 2026-05-05 17:26 | 44.47535 | 10.44483 | 39037 ft | 440 kts | 151° |
| 2026-05-05 17:26 | 44.42526 | 10.49413 | 39039 ft | 440 kts | 151° |
| 2026-05-05 17:27 | 44.37511 | 10.54339 | 39039 ft | 440 kts | 151° |
| 2026-05-05 17:27 | 44.32513 | 10.59237 | 39062 ft | 441 kts | 151° |
| 2026-05-05 17:28 | 44.27474 | 10.64163 | 39056 ft | 442 kts | 151° |
| 2026-05-05 17:28 | 44.22428 | 10.69088 | 39072 ft | 443 kts | 151° |
| 2026-05-05 17:29 | 44.17713 | 10.74736 | 39069 ft | 449 kts | 143° |
| 2026-05-05 17:29 | 44.13222 | 10.80742 | 39061 ft | 450 kts | 141° |
| 2026-05-05 17:30 | 44.08745 | 10.86843 | 39043 ft | 450 kts | 142° |
| 2026-05-05 17:30 | 44.04238 | 10.92960 | 39034 ft | 452 kts | 142° |
| 2026-05-05 17:31 | 43.99750 | 10.99016 | 39019 ft | 452 kts | 142° |
| 2026-05-05 17:31 | 43.95225 | 11.05097 | 39002 ft | 452 kts | 142° |
| 2026-05-05 17:32 | 43.90703 | 11.11160 | 38996 ft | 452 kts | 142° |
| 2026-05-05 17:32 | 43.86174 | 11.17219 | 38986 ft | 452 kts | 142° |
| 2026-05-05 17:33 | 43.81634 | 11.23278 | 38993 ft | 453 kts | 142° |
| 2026-05-05 17:33 | 43.77125 | 11.29282 | 39001 ft | 453 kts | 142° |
| 2026-05-05 17:34 | 43.72570 | 11.35335 | 39001 ft | 455 kts | 142° |
| 2026-05-05 17:34 | 43.67991 | 11.41405 | 39006 ft | 456 kts | 142° |
| 2026-05-05 17:35 | 43.63415 | 11.47460 | 39009 ft | 456 kts | 142° |
| 2026-05-05 17:35 | 43.58821 | 11.53525 | 39008 ft | 456 kts | 142° |
| 2026-05-05 17:36 | 43.54232 | 11.59570 | 39007 ft | 457 kts | 142° |
| 2026-05-05 17:36 | 43.49636 | 11.65611 | 39012 ft | 456 kts | 142° |
| 2026-05-05 17:37 | 43.45057 | 11.71614 | 39010 ft | 458 kts | 142° |
| 2026-05-05 17:37 | 43.40435 | 11.77659 | 39015 ft | 459 kts | 142° |
| 2026-05-05 17:38 | 43.35797 | 11.83716 | 39015 ft | 459 kts | 142° |
| 2026-05-05 17:38 | 43.31189 | 11.89721 | 39021 ft | 458 kts | 143° |
| 2026-05-05 17:39 | 43.26559 | 11.95740 | 39019 ft | 458 kts | 143° |
| 2026-05-05 17:39 | 43.21919 | 12.01757 | 39021 ft | 458 kts | 143° |
| 2026-05-05 17:40 | 43.17282 | 12.07756 | 39022 ft | 459 kts | 142° |
| 2026-05-05 17:40 | 43.13418 | 12.12746 | 39026 ft | 459 kts | 142° |
| 2026-05-05 17:41 | 43.08765 | 12.18744 | 39024 ft | 459 kts | 142° |
| 2026-05-05 17:41 | 43.04113 | 12.24726 | 39024 ft | 459 kts | 142° |
| 2026-05-05 17:42 | 42.99488 | 12.30663 | 39026 ft | 459 kts | 142° |
| 2026-05-05 17:42 | 42.94834 | 12.36622 | 39017 ft | 459 kts | 143° |
| 2026-05-05 17:43 | 42.90175 | 12.42575 | 39016 ft | 458 kts | 142° |
| 2026-05-05 17:43 | 42.85514 | 12.48516 | 39028 ft | 459 kts | 143° |
| 2026-05-05 17:44 | 42.80848 | 12.54452 | 39030 ft | 459 kts | 143° |
| 2026-05-05 17:44 | 42.76181 | 12.60377 | 39030 ft | 458 kts | 142° |
| 2026-05-05 17:45 | 42.71509 | 12.66295 | 39033 ft | 458 kts | 143° |
| 2026-05-05 17:45 | 42.66874 | 12.72153 | 39049 ft | 458 kts | 142° |
| 2026-05-05 17:46 | 42.62205 | 12.78042 | 39052 ft | 458 kts | 143° |
| 2026-05-05 17:46 | 42.57505 | 12.83955 | 39067 ft | 460 kts | 143° |
| 2026-05-05 17:47 | 42.52797 | 12.89866 | 39075 ft | 461 kts | 143° |
| 2026-05-05 17:47 | 42.48122 | 12.95727 | 39063 ft | 461 kts | 143° |
| 2026-05-05 17:48 | 42.43397 | 13.01636 | 39070 ft | 462 kts | 143° |
| 2026-05-05 17:48 | 42.38676 | 13.07525 | 39068 ft | 461 kts | 143° |
| 2026-05-05 17:49 | 42.33947 | 13.13414 | 39041 ft | 461 kts | 143° |
| 2026-05-05 17:49 | 42.29242 | 13.19258 | 39051 ft | 462 kts | 142° |
| 2026-05-05 17:50 | 42.24500 | 13.25140 | 39042 ft | 463 kts | 142° |
| 2026-05-05 17:50 | 42.19762 | 13.31005 | 39050 ft | 462 kts | 142° |
| 2026-05-05 17:51 | 42.15031 | 13.36900 | 39049 ft | 463 kts | 142° |
| 2026-05-05 17:51 | 42.10324 | 13.42871 | 38805 ft | 462 kts | 142° |
| 2026-05-05 17:51 | 42.07999 | 13.45822 | 38471 ft | 457 kts | 142° |
| 2026-05-05 17:52 | 42.05700 | 13.48731 | 37736 ft | 461 kts | 142° |
| 2026-05-05 17:52 | 42.03357 | 13.51690 | 37075 ft | 462 kts | 142° |
| 2026-05-05 17:52 | 42.01005 | 13.54659 | 36464 ft | 463 kts | 142° |
| 2026-05-05 17:52 | 41.98643 | 13.57638 | 35774 ft | 465 kts | 142° |
| 2026-05-05 17:53 | 41.96270 | 13.60625 | 35067 ft | 468 kts | 142° |
| 2026-05-05 17:53 | 41.93915 | 13.63588 | 34325 ft | 472 kts | 142° |
| 2026-05-05 17:53 | 41.91477 | 13.66651 | 33467 ft | 477 kts | 142° |
| 2026-05-05 17:53 | 41.89078 | 13.69662 | 32645 ft | 479 kts | 142° |
| 2026-05-05 17:54 | 41.86632 | 13.72730 | 31807 ft | 481 kts | 142° |
| 2026-05-05 17:54 | 41.84179 | 13.75803 | 30933 ft | 484 kts | 142° |
| 2026-05-05 17:54 | 41.81711 | 13.78893 | 30018 ft | 485 kts | 141° |
| 2026-05-05 17:54 | 41.79234 | 13.81990 | 28975 ft | 487 kts | 141° |
| 2026-05-05 17:55 | 41.76762 | 13.85079 | 28077 ft | 484 kts | 141° |
| 2026-05-05 17:55 | 41.74326 | 13.88126 | 27505 ft | 474 kts | 140° |
| 2026-05-05 17:55 | 41.71932 | 13.91112 | 26847 ft | 467 kts | 140° |
| 2026-05-05 17:55 | 41.69569 | 13.94054 | 26170 ft | 462 kts | 140° |
| 2026-05-05 17:56 | 41.67256 | 13.96929 | 25520 ft | 456 kts | 140° |
| 2026-05-05 17:56 | 41.64949 | 13.99795 | 24873 ft | 450 kts | 140° |
| 2026-05-05 17:56 | 41.62675 | 14.02630 | 24221 ft | 444 kts | 138° |
| 2026-05-05 17:56 | 41.60542 | 14.05597 | 23520 ft | 441 kts | 133° |
| 2026-05-05 17:57 | 41.58628 | 14.08762 | 23044 ft | 435 kts | 130° |
| 2026-05-05 17:57 | 41.56772 | 14.11978 | 22711 ft | 434 kts | 129° |
| 2026-05-05 17:57 | 41.54954 | 14.15178 | 22195 ft | 432 kts | 129° |
| 2026-05-05 17:57 | 41.53152 | 14.18377 | 21675 ft | 430 kts | 129° |
| 2026-05-05 17:58 | 41.51380 | 14.21535 | 20925 ft | 430 kts | 129° |
| 2026-05-05 17:58 | 41.49580 | 14.24747 | 19978 ft | 431 kts | 128° |
| 2026-05-05 17:58 | 41.47794 | 14.27937 | 19266 ft | 425 kts | 129° |
| 2026-05-05 17:58 | 41.46041 | 14.31068 | 18613 ft | 418 kts | 129° |
| 2026-05-05 17:59 | 41.44309 | 14.34159 | 17873 ft | 412 kts | 129° |
| 2026-05-05 17:59 | 41.42605 | 14.37196 | 17183 ft | 405 kts | 128° |
| 2026-05-05 17:59 | 41.40947 | 14.40151 | 16566 ft | 396 kts | 128° |
| 2026-05-05 17:59 | 41.39304 | 14.43075 | 15938 ft | 389 kts | 129° |
| 2026-05-05 18:00 | 41.37911 | 14.45550 | 15394 ft | 385 kts | 128° |
| 2026-05-05 18:00 | 41.36336 | 14.48347 | 14773 ft | 382 kts | 129° |
| 2026-05-05 18:00 | 41.34748 | 14.51165 | 14164 ft | 378 kts | 128° |
| 2026-05-05 18:00 | 41.33176 | 14.53952 | 13524 ft | 372 kts | 129° |
| 2026-05-05 18:01 | 41.31628 | 14.56696 | 12885 ft | 368 kts | 128° |
| 2026-05-05 18:01 | 41.30108 | 14.59386 | 12287 ft | 360 kts | 129° |
| 2026-05-05 18:01 | 41.28613 | 14.62032 | 11662 ft | 355 kts | 128° |
| 2026-05-05 18:01 | 41.27149 | 14.64622 | 11348 ft | 340 kts | 129° |
| 2026-05-05 18:02 | 41.25770 | 14.67058 | 11239 ft | 321 kts | 129° |
| 2026-05-05 18:02 | 41.24465 | 14.69360 | 11124 ft | 301 kts | 128° |
| 2026-05-05 18:02 | 41.23247 | 14.71508 | 10909 ft | 282 kts | 128° |
| 2026-05-05 18:02 | 41.22098 | 14.73496 | 10684 ft | 267 kts | 133° |
| 2026-05-05 18:03 | 41.20741 | 14.75087 | 10401 ft | 258 kts | 147° |
| 2026-05-05 18:03 | 41.19228 | 14.76395 | 10002 ft | 260 kts | 150° |
| 2026-05-05 18:03 | 41.17677 | 14.77651 | 9558 ft | 261 kts | 151° |
| 2026-05-05 18:03 | 41.16114 | 14.78899 | 9120 ft | 262 kts | 153° |
| 2026-05-05 18:04 | 41.14411 | 14.79698 | 8644 ft | 259 kts | 177° |
| 2026-05-05 18:04 | 41.12691 | 14.79294 | 8263 ft | 250 kts | 209° |
| 2026-05-05 18:04 | 41.11427 | 14.77833 | 7918 ft | 243 kts | 234° |
| 2026-05-05 18:04 | 41.10502 | 14.75995 | 7666 ft | 236 kts | 239° |
| 2026-05-05 18:05 | 41.09658 | 14.74150 | 7422 ft | 230 kts | 240° |
| 2026-05-05 18:05 | 41.08848 | 14.72368 | 7255 ft | 222 kts | 239° |
| 2026-05-05 18:05 | 41.08054 | 14.70638 | 7021 ft | 217 kts | 239° |
| 2026-05-05 18:05 | 41.07273 | 14.68947 | 6975 ft | 225 kts | 240° |
| 2026-05-05 18:06 | 41.06416 | 14.67012 | 6949 ft | 248 kts | 240° |
| 2026-05-05 18:06 | 41.05849 | 14.65745 | 6946 ft | 236 kts | 239° |
| 2026-05-05 18:06 | 41.04732 | 14.63371 | 6804 ft | 220 kts | 239° |
| 2026-05-05 18:06 | 41.03922 | 14.61663 | 6547 ft | 218 kts | 239° |
| 2026-05-05 18:07 | 41.03131 | 14.59972 | 6183 ft | 219 kts | 239° |
| 2026-05-05 18:07 | 41.02320 | 14.58240 | 5749 ft | 223 kts | 239° |
| 2026-05-05 18:07 | 41.01489 | 14.56473 | 5300 ft | 228 kts | 239° |
| 2026-05-05 18:07 | 41.00648 | 14.54678 | 4913 ft | 230 kts | 238° |
| 2026-05-05 18:08 | 40.99801 | 14.52876 | 4556 ft | 229 kts | 237° |
| 2026-05-05 18:08 | 40.98961 | 14.51092 | 4233 ft | 226 kts | 238° |
| 2026-05-05 18:08 | 40.98130 | 14.49323 | 3913 ft | 226 kts | 237° |
| 2026-05-05 18:08 | 40.97314 | 14.47586 | 3587 ft | 224 kts | 237° |
| 2026-05-05 18:09 | 40.96494 | 14.45841 | 3279 ft | 221 kts | 237° |
| 2026-05-05 18:09 | 40.95706 | 14.44166 | 2958 ft | 207 kts | 237° |
| 2026-05-05 18:09 | 40.94967 | 14.42595 | 2658 ft | 193 kts | 237° |
| 2026-05-05 18:09 | 40.94279 | 14.41133 | 2358 ft | 181 kts | 237° |
| 2026-05-05 18:10 | 40.93638 | 14.39772 | 2098 ft | 167 kts | 237° |
| 2026-05-05 18:10 | 40.93050 | 14.38524 | 1871 ft | 154 kts | 238° |
| 2026-05-05 18:10 | 40.92513 | 14.37385 | 1644 ft | 140 kts | 238° |
| 2026-05-05 18:10 | 40.92018 | 14.36333 | 1407 ft | 130 kts | 240° |
| 2026-05-05 18:11 | 40.91560 | 14.35354 | 1213 ft | 125 kts | 238° |
| 2026-05-05 18:11 | 40.91105 | 14.34375 | 1067 ft | 125 kts | 240° |
| 2026-05-05 18:11 | 40.90645 | 14.33394 | 901 ft | 126 kts | 239° |
| 2026-05-05 18:11 | 40.90171 | 14.32414 | 691 ft | 130 kts | 240° |
| 2026-05-05 18:12 | 40.89697 | 14.31382 | 488 ft | 130 kts | 238° |
| 2026-05-05 18:12 | 40.89219 | 14.30386 | 324 ft | 127 kts | 238° |
| 2026-05-05 18:12 | 40.88765 | 14.29420 | 271 ft | 116 kts | 238° |
| 2026-05-05 18:12 | 40.88414 | 14.28674 | 280 ft | 60 kts | 237° |
| 2026-05-05 18:13 | 40.88238 | 14.28429 | 286 ft | 32 kts | 211° |
| 2026-05-05 18:13 | 40.88121 | 14.28346 | 292 ft | 0 kts | 208° |
| 2026-05-05 18:14 | 40.88110 | 14.28338 | 292 ft | 8 kts | 208° |
| 2026-05-05 18:14 | 40.88052 | 14.28226 | 294 ft | 21 kts | 257° |
| 2026-05-05 18:14 | 40.87989 | 14.28136 | 295 ft | 0 kts | 178° |
| 2026-05-05 18:14 | 40.87977 | 14.28137 | 298 ft | 7 kts | 175° |
| 2026-05-05 18:15 | 40.87923 | 14.28154 | 299 ft | 6 kts | 162° |
| 2026-05-05 18:15 | 40.87898 | 14.28163 | 299 ft | 2 kts | 163° |
| 2026-05-05 18:15 | 40.87890 | 14.28167 | 298 ft | 0 kts | 163° |